createdAt,value
2017-09-30T00:01:05.884Z,100.00
2017-09-30T00:02:12.900Z,100.00
2017-09-30T00:03:19.125Z,100.00
2017-09-30T00:04:26.661Z,100.00
2017-09-30T00:05:32.915Z,100.00
2017-09-30T00:06:40.372Z,100.00
2017-09-30T00:07:49.440Z,100.00
2017-09-30T00:08:58.375Z,100.00
2017-09-30T00:10:08.205Z,100.00
2017-09-30T00:11:16.418Z,100.00
2017-09-30T00:12:24.219Z,100.00
2017-09-30T00:13:31.373Z,100.00
2017-09-30T00:14:38.460Z,100.00
2017-09-30T00:15:46.666Z,100.00
2017-09-30T00:16:53.573Z,100.00
2017-09-30T00:18:01.447Z,100.00
2017-09-30T00:19:10.327Z,100.00
2017-09-30T00:20:18.393Z,100.00
2017-09-30T00:21:25.807Z,100.00
2017-09-30T00:22:35.342Z,100.00
2017-09-30T00:23:44.677Z,100.00
2017-09-30T00:24:51.556Z,100.00
2017-09-30T00:25:59.073Z,100.00
2017-09-30T00:27:06.811Z,100.00
2017-09-30T00:28:21.099Z,100.00
2017-09-30T00:29:32.562Z,100.00
2017-09-30T00:30:41.855Z,100.00
2017-09-30T00:31:49.770Z,100.00
2017-09-30T00:32:57.617Z,100.00
2017-09-30T00:34:05.187Z,100.00
2017-09-30T00:35:13.981Z,100.00
2017-09-30T00:36:21.140Z,100.00
2017-09-30T00:37:30.041Z,100.00
2017-09-30T00:38:37.002Z,100.00
2017-09-30T00:39:44.270Z,100.00
2017-09-30T00:40:51.475Z,100.00
2017-09-30T00:42:00.684Z,100.00
2017-09-30T00:43:09.590Z,100.00
2017-09-30T00:44:19.004Z,100.00
2017-09-30T00:45:28.163Z,100.00
2017-09-30T00:46:35.713Z,100.00
2017-09-30T00:47:44.840Z,100.00
2017-09-30T00:48:53.560Z,100.00
2017-09-30T00:50:01.733Z,100.00
2017-09-30T00:51:08.953Z,100.00
2017-09-30T00:52:18.348Z,100.00
2017-09-30T00:53:27.049Z,100.00
2017-09-30T00:54:35.464Z,100.00
2017-09-30T00:55:42.779Z,100.00
2017-09-30T00:56:49.671Z,100.00
2017-09-30T00:57:56.717Z,100.00
2017-09-30T00:59:04.534Z,100.00
2017-09-30T01:00:12.037Z,100.00
2017-09-30T01:01:19.074Z,100.00
2017-09-30T01:02:27.895Z,100.00
2017-09-30T01:03:36.441Z,100.00
2017-09-30T01:04:44.516Z,100.00
2017-09-30T01:05:51.742Z,100.00
2017-09-30T01:07:00.201Z,100.00
2017-09-30T01:08:13.063Z,100.00
2017-09-30T01:09:20.592Z,100.00
2017-09-30T01:10:29.264Z,100.00
2017-09-30T01:11:37.404Z,100.00
2017-09-30T01:12:44.331Z,100.00
2017-09-30T01:13:53.233Z,100.00
2017-09-30T01:15:01.564Z,100.00
2017-09-30T01:16:09.955Z,100.00
2017-09-30T01:17:18.333Z,100.00
2017-09-30T01:18:27.580Z,100.00
2017-09-30T01:19:33.052Z,100.00
2017-09-30T01:20:39.710Z,100.00
2017-09-30T01:21:48.450Z,100.00
2017-09-30T01:22:53.978Z,100.00
2017-09-30T01:23:59.626Z,100.00
2017-09-30T01:25:06.508Z,100.00
2017-09-30T01:26:11.928Z,100.00
2017-09-30T01:27:19.248Z,100.00
2017-09-30T01:28:25.575Z,100.00
2017-09-30T01:29:31.791Z,100.00
2017-09-30T01:30:37.506Z,100.00
2017-09-30T01:31:42.969Z,100.00
2017-09-30T01:32:49.475Z,100.00
2017-09-30T01:33:55.015Z,100.00
2017-09-30T01:35:03.586Z,100.00
2017-09-30T01:36:09.036Z,100.00
2017-09-30T01:37:17.949Z,100.00
2017-09-30T01:38:23.576Z,100.00
2017-09-30T01:39:29.727Z,100.00
2017-09-30T01:40:37.428Z,100.00
2017-09-30T01:41:46.848Z,100.00
2017-09-30T01:42:54.088Z,100.00
2017-09-30T01:44:02.036Z,100.00
2017-09-30T01:45:10.311Z,100.00
2017-09-30T01:46:17.667Z,100.00
2017-09-30T01:47:25.703Z,100.00
2017-09-30T01:48:31.872Z,100.00
2017-09-30T01:49:39.798Z,100.00
2017-09-30T01:50:48.195Z,100.00
2017-09-30T01:51:56.064Z,100.00
2017-09-30T01:53:04.515Z,100.00
2017-09-30T01:54:12.615Z,100.00
2017-09-30T01:55:21.331Z,100.00
2017-09-30T01:56:28.362Z,100.00
2017-09-30T01:57:36.925Z,100.00
2017-09-30T01:58:43.098Z,100.00
2017-09-30T01:59:50.618Z,100.00
2017-09-30T02:00:58.005Z,100.00
2017-09-30T02:02:05.318Z,100.00
2017-09-30T02:03:12.564Z,100.00
2017-09-30T02:04:19.699Z,100.00
2017-09-30T02:05:25.958Z,100.00
2017-09-30T02:06:32.433Z,100.00
2017-09-30T02:07:39.626Z,100.00
2017-09-30T02:08:45.867Z,100.00
2017-09-30T02:09:54.253Z,100.00
2017-09-30T02:11:01.927Z,100.00
2017-09-30T02:12:12.913Z,100.00
2017-09-30T02:13:20.197Z,100.00
2017-09-30T02:14:26.781Z,100.00
2017-09-30T02:15:34.584Z,100.00
2017-09-30T02:16:42.710Z,100.00
2017-09-30T02:17:51.145Z,100.00
2017-09-30T02:18:57.871Z,100.00
2017-09-30T02:20:05.167Z,100.00
2017-09-30T02:21:14.604Z,100.00
2017-09-30T02:22:22.972Z,100.00
2017-09-30T02:23:30.680Z,100.00
2017-09-30T02:24:41.345Z,100.00
2017-09-30T02:25:48.683Z,100.00
2017-09-30T02:26:57.050Z,100.00
2017-09-30T02:28:08.012Z,100.00
2017-09-30T02:29:19.104Z,100.00
2017-09-30T02:30:28.182Z,100.00
2017-09-30T02:31:36.579Z,100.00
2017-09-30T02:32:44.677Z,100.00
2017-09-30T02:33:57.369Z,100.00
2017-09-30T02:35:05.660Z,100.00
2017-09-30T02:36:15.277Z,100.00
2017-09-30T02:37:23.143Z,100.00
2017-09-30T02:38:32.167Z,100.00
2017-09-30T02:39:42.498Z,100.00
2017-09-30T02:40:50.430Z,100.00
2017-09-30T02:41:59.062Z,100.00
2017-09-30T02:43:06.664Z,100.00
2017-09-30T02:44:15.991Z,100.00
2017-09-30T02:45:23.203Z,100.00
2017-09-30T02:46:30.763Z,100.00
2017-09-30T02:47:39.883Z,100.00
2017-09-30T02:48:47.755Z,100.00
2017-09-30T02:49:56.043Z,100.00
2017-09-30T02:51:04.949Z,100.00
2017-09-30T02:52:12.816Z,100.00
2017-09-30T02:53:21.125Z,100.00
2017-09-30T02:54:28.958Z,100.00
2017-09-30T02:55:38.679Z,100.00
2017-09-30T02:56:47.379Z,100.00
2017-09-30T02:57:55.035Z,100.00
2017-09-30T02:59:01.964Z,100.00
2017-09-30T03:00:09.623Z,100.00
2017-09-30T03:01:16.240Z,100.00
2017-09-30T03:02:24.828Z,100.00
2017-09-30T03:03:32.106Z,100.00
2017-09-30T03:04:39.817Z,100.00
2017-09-30T03:05:47.896Z,100.00
2017-09-30T03:06:55.337Z,100.00
2017-09-30T03:08:03.000Z,100.00
2017-09-30T03:09:14.014Z,100.00
2017-09-30T03:10:21.481Z,100.00
2017-09-30T03:11:28.846Z,100.00
2017-09-30T03:12:36.670Z,100.00
2017-09-30T03:13:46.117Z,100.00
2017-09-30T03:14:54.708Z,100.00
2017-09-30T03:16:03.101Z,100.00
2017-09-30T03:17:10.276Z,100.00
2017-09-30T03:18:19.727Z,100.00
2017-09-30T03:19:27.376Z,100.00
2017-09-30T03:20:34.694Z,100.00
2017-09-30T03:21:41.560Z,100.00
2017-09-30T03:22:51.246Z,100.00
2017-09-30T03:23:58.886Z,100.00
2017-09-30T03:25:07.378Z,100.00
2017-09-30T03:26:15.097Z,100.00
2017-09-30T03:27:23.728Z,100.00
2017-09-30T03:28:30.777Z,100.00
2017-09-30T03:29:38.703Z,100.00
2017-09-30T03:30:46.181Z,100.00
2017-09-30T03:31:54.080Z,100.00
2017-09-30T03:33:02.824Z,100.00
2017-09-30T03:34:11.245Z,100.00
2017-09-30T03:35:20.580Z,100.00
2017-09-30T03:36:28.295Z,100.00
2017-09-30T03:37:36.201Z,100.00
2017-09-30T03:38:43.511Z,100.00
2017-09-30T03:39:51.370Z,100.00
2017-09-30T03:41:01.026Z,100.00
2017-09-30T03:42:09.200Z,100.00
2017-09-30T03:43:18.251Z,100.00
2017-09-30T03:44:28.711Z,100.00
2017-09-30T03:45:37.920Z,100.00
2017-09-30T03:46:46.095Z,100.00
2017-09-30T03:47:53.816Z,100.00
2017-09-30T03:49:02.967Z,100.00
2017-09-30T03:50:13.049Z,100.00
2017-09-30T03:51:20.441Z,100.00
2017-09-30T03:52:29.081Z,100.00
2017-09-30T03:53:39.322Z,100.00
2017-09-30T03:54:47.065Z,100.00
2017-09-30T03:55:54.867Z,100.00
2017-09-30T03:57:09.168Z,100.00
2017-09-30T03:58:16.836Z,100.00
2017-09-30T03:59:24.887Z,100.00
2017-09-30T04:00:33.146Z,100.00
2017-09-30T04:01:42.127Z,100.00
2017-09-30T04:02:49.822Z,100.00
2017-09-30T04:04:01.391Z,100.00
2017-09-30T04:05:10.594Z,100.00
2017-09-30T04:06:23.632Z,100.00
2017-09-30T04:07:32.089Z,100.00
2017-09-30T04:08:40.144Z,100.00
2017-09-30T04:09:48.718Z,100.00
2017-09-30T04:10:56.816Z,100.00
2017-09-30T04:12:04.427Z,100.00
2017-09-30T04:13:12.430Z,100.00
2017-09-30T04:14:19.799Z,100.00
2017-09-30T04:15:28.187Z,100.00
2017-09-30T04:16:36.396Z,100.00
2017-09-30T04:17:45.440Z,100.00
2017-09-30T04:18:52.982Z,100.00
2017-09-30T04:20:01.120Z,100.00
2017-09-30T04:21:08.452Z,100.00
2017-09-30T04:22:16.256Z,100.00
2017-09-30T04:23:24.564Z,100.00
2017-09-30T04:24:31.666Z,100.00
2017-09-30T04:25:42.488Z,100.00
2017-09-30T04:26:53.380Z,100.00
2017-09-30T04:28:00.597Z,100.00
2017-09-30T04:29:08.704Z,100.00
2017-09-30T04:30:18.082Z,100.00
2017-09-30T04:31:25.265Z,100.00
2017-09-30T04:32:33.656Z,100.00
2017-09-30T04:33:41.800Z,100.00
2017-09-30T04:34:50.533Z,100.00
2017-09-30T04:35:58.231Z,100.00
2017-09-30T04:37:05.858Z,100.00
2017-09-30T04:38:13.619Z,100.00
2017-09-30T04:39:21.789Z,100.00
2017-09-30T04:40:29.034Z,100.00
2017-09-30T04:41:37.544Z,100.00
2017-09-30T04:42:44.866Z,100.00
2017-09-30T04:43:52.761Z,100.00
2017-09-30T04:44:59.956Z,100.00
2017-09-30T04:46:06.041Z,100.00
2017-09-30T04:47:13.453Z,100.00
2017-09-30T04:48:21.707Z,100.00
2017-09-30T04:49:28.209Z,100.00
2017-09-30T04:50:35.982Z,100.00
2017-09-30T04:51:42.135Z,100.00
2017-09-30T04:52:48.345Z,100.00
2017-09-30T04:53:54.747Z,100.00
2017-09-30T04:55:02.151Z,100.00
2017-09-30T04:56:09.343Z,100.00
2017-09-30T04:57:15.565Z,100.00
2017-09-30T04:58:21.770Z,100.00
2017-09-30T04:59:28.635Z,100.00
2017-09-30T05:00:36.583Z,100.00
2017-09-30T05:01:42.720Z,100.00
2017-09-30T05:02:51.003Z,100.00
2017-09-30T05:03:56.927Z,100.00
2017-09-30T05:05:04.004Z,100.00
2017-09-30T05:06:10.298Z,100.00
2017-09-30T05:07:16.511Z,100.00
2017-09-30T05:08:23.362Z,100.00
2017-09-30T05:09:31.845Z,100.00
2017-09-30T05:10:38.500Z,100.00
2017-09-30T05:11:44.869Z,100.00
2017-09-30T05:12:52.063Z,100.00
2017-09-30T05:13:58.662Z,100.00
2017-09-30T05:15:05.890Z,100.00
2017-09-30T05:16:13.031Z,100.00
2017-09-30T05:17:19.809Z,100.00
2017-09-30T05:18:26.960Z,100.00
2017-09-30T05:19:33.652Z,100.00
2017-09-30T05:20:39.920Z,100.00
2017-09-30T05:21:47.947Z,100.00
2017-09-30T05:22:54.888Z,100.00
2017-09-30T05:24:02.785Z,100.00
2017-09-30T05:25:09.953Z,100.00
2017-09-30T05:26:21.475Z,100.00
2017-09-30T05:27:28.982Z,100.00
2017-09-30T05:28:37.373Z,100.00
2017-09-30T05:29:45.048Z,100.00
2017-09-30T05:30:54.603Z,100.00
2017-09-30T05:32:02.896Z,100.00
2017-09-30T05:33:11.136Z,100.00
2017-09-30T05:34:17.384Z,100.00
2017-09-30T05:35:24.213Z,100.00
2017-09-30T05:36:33.673Z,100.00
2017-09-30T05:37:39.903Z,100.00
2017-09-30T05:38:46.121Z,100.00
2017-09-30T05:39:56.914Z,100.00
2017-09-30T05:41:03.536Z,100.00
2017-09-30T05:42:09.655Z,100.00
2017-09-30T05:43:16.235Z,100.00
2017-09-30T05:44:23.161Z,100.00
2017-09-30T05:45:30.945Z,100.00
2017-09-30T05:46:37.668Z,100.00
2017-09-30T05:47:44.687Z,100.00
2017-09-30T05:48:51.377Z,100.00
2017-09-30T05:49:57.823Z,100.00
2017-09-30T05:51:05.305Z,100.00
2017-09-30T05:52:14.121Z,100.00
2017-09-30T05:53:20.252Z,100.00
2017-09-30T05:54:26.488Z,100.00
2017-09-30T05:55:33.033Z,100.00
2017-09-30T05:56:40.306Z,100.00
2017-09-30T05:57:47.075Z,100.00
2017-09-30T05:58:53.344Z,100.00
2017-09-30T05:59:59.458Z,100.00
2017-09-30T06:01:06.858Z,100.00
2017-09-30T06:02:13.713Z,100.00
2017-09-30T06:03:20.069Z,100.00
2017-09-30T06:04:27.009Z,100.00
2017-09-30T06:05:36.253Z,100.00
2017-09-30T06:06:43.698Z,100.00
2017-09-30T06:07:53.744Z,100.00
2017-09-30T06:09:00.547Z,100.00
2017-09-30T06:10:06.960Z,100.00
2017-09-30T06:11:13.626Z,100.00
2017-09-30T06:12:21.017Z,100.00
2017-09-30T06:13:29.920Z,100.00
2017-09-30T06:14:37.487Z,100.00
2017-09-30T06:15:44.874Z,100.00
2017-09-30T06:16:50.974Z,100.00
2017-09-30T06:17:57.224Z,99.50
2017-09-30T06:19:04.524Z,98.86
2017-09-30T06:20:11.341Z,98.58
2017-09-30T06:21:18.140Z,97.47
2017-09-30T06:22:24.358Z,97.99
2017-09-30T06:23:30.789Z,97.50
2017-09-30T06:24:39.124Z,96.84
2017-09-30T06:25:46.602Z,96.43
2017-09-30T06:26:53.799Z,97.17
2017-09-30T06:28:00.105Z,97.07
2017-09-30T06:29:05.938Z,97.22
2017-09-30T06:30:13.103Z,96.49
2017-09-30T06:31:19.327Z,96.10
2017-09-30T06:32:25.682Z,94.47
2017-09-30T06:33:32.667Z,93.54
2017-09-30T06:34:38.864Z,94.00
2017-09-30T06:35:45.955Z,93.23
2017-09-30T06:36:52.280Z,93.11
2017-09-30T06:37:59.309Z,93.12
2017-09-30T06:39:05.099Z,93.08
2017-09-30T06:40:11.248Z,92.13
2017-09-30T06:41:18.308Z,92.46
2017-09-30T06:42:25.540Z,91.59
2017-09-30T06:43:31.835Z,91.54
2017-09-30T06:44:38.142Z,91.58
2017-09-30T06:45:44.336Z,91.77
2017-09-30T06:46:52.037Z,92.36
2017-09-30T06:48:00.052Z,93.36
2017-09-30T06:49:07.677Z,92.46
2017-09-30T06:50:14.038Z,91.86
2017-09-30T06:51:20.296Z,91.38
2017-09-30T06:52:26.515Z,93.09
2017-09-30T06:53:32.783Z,90.99
2017-09-30T06:54:39.746Z,90.25
2017-09-30T06:55:48.101Z,89.14
2017-09-30T06:56:54.268Z,88.13
2017-09-30T06:58:01.640Z,89.43
2017-09-30T06:59:07.785Z,87.77
2017-09-30T07:00:14.394Z,86.69
2017-09-30T07:01:21.392Z,87.21
2017-09-30T07:02:27.544Z,86.37
2017-09-30T07:03:33.878Z,86.98
2017-09-30T07:04:40.503Z,86.44
2017-09-30T07:05:46.656Z,86.46
2017-09-30T07:06:52.923Z,87.12
2017-09-30T07:07:59.269Z,85.74
2017-09-30T07:09:04.771Z,86.36
2017-09-30T07:10:11.012Z,87.27
2017-09-30T07:11:17.187Z,84.56
2017-09-30T07:12:23.407Z,85.67
2017-09-30T07:13:29.614Z,87.96
2017-09-30T07:14:37.369Z,85.27
2017-09-30T07:15:43.570Z,87.26
2017-09-30T07:16:50.209Z,86.83
2017-09-30T07:17:56.732Z,85.76
2017-09-30T07:19:03.065Z,84.40
2017-09-30T07:20:09.991Z,83.86
2017-09-30T07:21:16.173Z,84.21
2017-09-30T07:22:22.386Z,84.73
2017-09-30T07:23:28.560Z,83.52
2017-09-30T07:24:34.864Z,82.15
2017-09-30T07:25:41.037Z,83.43
2017-09-30T07:26:47.405Z,82.92
2017-09-30T07:27:53.604Z,82.72
2017-09-30T07:29:00.164Z,81.76
2017-09-30T07:30:06.984Z,82.50
2017-09-30T07:31:14.767Z,82.55
2017-09-30T07:32:20.901Z,82.52
2017-09-30T07:33:27.108Z,81.19
2017-09-30T07:34:33.439Z,82.19
2017-09-30T07:35:39.552Z,80.53
2017-09-30T07:36:46.412Z,81.88
2017-09-30T07:37:53.367Z,81.81
2017-09-30T07:38:59.822Z,80.23
2017-09-30T07:40:06.136Z,80.09
2017-09-30T07:41:12.378Z,80.46
2017-09-30T07:42:18.657Z,81.49
2017-09-30T07:43:25.078Z,79.19
2017-09-30T07:44:32.747Z,80.03
2017-09-30T07:45:41.101Z,81.29
2017-09-30T07:46:48.972Z,81.14
2017-09-30T07:47:55.303Z,80.10
2017-09-30T07:49:01.461Z,81.09
2017-09-30T07:50:08.172Z,80.52
2017-09-30T07:51:14.445Z,81.13
2017-09-30T07:52:20.833Z,82.15
2017-09-30T07:53:26.978Z,81.12
2017-09-30T07:54:33.930Z,80.09
2017-09-30T07:55:40.819Z,81.31
2017-09-30T07:56:47.098Z,81.10
2017-09-30T07:57:53.546Z,82.16
2017-09-30T07:58:59.908Z,80.93
2017-09-30T08:00:06.103Z,78.62
2017-09-30T08:01:14.170Z,80.90
2017-09-30T08:02:20.483Z,82.16
2017-09-30T08:03:30.150Z,82.33
2017-09-30T08:04:36.393Z,81.61
2017-09-30T08:05:42.573Z,80.76
2017-09-30T08:06:48.751Z,80.83
2017-09-30T08:07:54.959Z,80.59
2017-09-30T08:09:01.221Z,80.44
2017-09-30T08:10:07.842Z,81.09
2017-09-30T08:11:14.052Z,80.58
2017-09-30T08:12:20.205Z,82.56
2017-09-30T08:13:26.419Z,79.71
2017-09-30T08:14:33.480Z,80.24
2017-09-30T08:15:39.914Z,81.61
2017-09-30T08:16:46.915Z,80.40
2017-09-30T08:17:53.443Z,80.49
2017-09-30T08:18:59.700Z,78.75
2017-09-30T08:20:05.812Z,79.35
2017-09-30T08:21:12.724Z,79.96
2017-09-30T08:22:19.010Z,78.04
2017-09-30T08:23:25.156Z,79.26
2017-09-30T08:24:31.280Z,77.08
2017-09-30T08:25:38.175Z,77.84
2017-09-30T08:26:45.284Z,77.70
2017-09-30T08:27:53.140Z,78.54
2017-09-30T08:29:02.581Z,76.75
2017-09-30T08:30:08.684Z,77.10
2017-09-30T08:31:15.442Z,75.88
2017-09-30T08:32:21.857Z,76.87
2017-09-30T08:33:28.272Z,77.23
2017-09-30T08:34:34.547Z,78.57
2017-09-30T08:35:40.763Z,77.09
2017-09-30T08:36:47.208Z,78.24
2017-09-30T08:37:53.749Z,76.88
2017-09-30T08:39:01.201Z,75.65
2017-09-30T08:40:06.976Z,73.67
2017-09-30T08:41:13.652Z,74.62
2017-09-30T08:42:19.544Z,75.21
2017-09-30T08:43:25.743Z,73.85
2017-09-30T08:44:32.948Z,75.73
2017-09-30T08:45:40.964Z,75.77
2017-09-30T08:46:47.298Z,75.36
2017-09-30T08:47:53.445Z,76.52
2017-09-30T08:49:00.251Z,76.56
2017-09-30T08:50:06.921Z,76.55
2017-09-30T08:51:13.369Z,76.45
2017-09-30T08:52:21.203Z,76.46
2017-09-30T08:53:28.439Z,77.85
2017-09-30T08:54:34.413Z,78.30
2017-09-30T08:55:39.800Z,77.83
2017-09-30T08:56:45.958Z,80.24
2017-09-30T08:57:52.493Z,79.78
2017-09-30T08:58:59.440Z,79.62
2017-09-30T09:00:05.635Z,78.30
2017-09-30T09:01:11.730Z,75.66
2017-09-30T09:02:18.418Z,77.76
2017-09-30T09:03:25.345Z,77.01
2017-09-30T09:04:32.075Z,76.51
2017-09-30T09:05:40.202Z,76.08
2017-09-30T09:06:46.526Z,74.79
2017-09-30T09:07:52.699Z,76.24
2017-09-30T09:08:59.068Z,77.80
2017-09-30T09:10:05.207Z,76.25
2017-09-30T09:11:12.771Z,76.62
2017-09-30T09:12:19.096Z,74.80
2017-09-30T09:13:26.203Z,75.87
2017-09-30T09:14:32.558Z,75.78
2017-09-30T09:15:39.796Z,76.40
2017-09-30T09:16:46.907Z,76.09
2017-09-30T09:17:54.261Z,76.39
2017-09-30T09:19:00.418Z,76.81
2017-09-30T09:20:06.624Z,76.76
2017-09-30T09:21:12.970Z,74.42
2017-09-30T09:22:19.287Z,75.91
2017-09-30T09:23:25.714Z,74.14
2017-09-30T09:24:33.357Z,75.12
2017-09-30T09:25:40.183Z,73.81
2017-09-30T09:26:46.438Z,74.46
2017-09-30T09:27:52.668Z,74.60
2017-09-30T09:28:59.762Z,76.33
2017-09-30T09:30:06.699Z,75.23
2017-09-30T09:31:13.079Z,75.43
2017-09-30T09:32:19.674Z,74.55
2017-09-30T09:33:26.068Z,73.51
2017-09-30T09:34:33.216Z,74.33
2017-09-30T09:35:39.544Z,73.14
2017-09-30T09:36:45.705Z,73.88
2017-09-30T09:37:52.160Z,72.48
2017-09-30T09:38:58.532Z,75.40
2017-09-30T09:40:04.517Z,73.11
2017-09-30T09:41:10.675Z,72.33
2017-09-30T09:42:16.850Z,71.48
2017-09-30T09:43:23.160Z,71.75
2017-09-30T09:44:30.616Z,70.63
2017-09-30T09:45:36.811Z,72.41
2017-09-30T09:46:43.683Z,72.89
2017-09-30T09:47:49.936Z,70.33
2017-09-30T09:48:56.396Z,71.91
2017-09-30T09:50:03.072Z,70.75
2017-09-30T09:51:11.541Z,71.71
2017-09-30T09:52:18.000Z,72.58
2017-09-30T09:53:23.967Z,69.60
2017-09-30T09:54:31.949Z,70.14
2017-09-30T09:55:38.272Z,71.06
2017-09-30T09:56:44.485Z,71.14
2017-09-30T09:57:50.697Z,71.32
2017-09-30T09:58:57.250Z,69.94
2017-09-30T10:00:03.805Z,70.76
2017-09-30T10:01:10.619Z,70.61
2017-09-30T10:02:16.817Z,70.32
2017-09-30T10:03:23.521Z,70.65
2017-09-30T10:04:29.803Z,71.68
2017-09-30T10:05:35.953Z,71.55
2017-09-30T10:06:43.119Z,71.10
2017-09-30T10:07:49.832Z,71.79
2017-09-30T10:08:57.004Z,71.90
2017-09-30T10:10:05.281Z,72.04
2017-09-30T10:11:11.508Z,71.37
2017-09-30T10:12:18.396Z,71.62
2017-09-30T10:13:24.692Z,71.93
2017-09-30T10:14:30.852Z,70.80
2017-09-30T10:15:37.052Z,71.40
2017-09-30T10:16:48.938Z,73.40
2017-09-30T10:17:55.878Z,72.55
2017-09-30T10:19:02.087Z,71.25
2017-09-30T10:20:08.244Z,70.98
2017-09-30T10:21:14.515Z,68.86
2017-09-30T10:22:20.964Z,71.09
2017-09-30T10:23:27.166Z,69.57
2017-09-30T10:24:34.261Z,69.45
2017-09-30T10:25:41.397Z,69.87
2017-09-30T10:26:48.393Z,69.84
2017-09-30T10:27:58.210Z,69.83
2017-09-30T10:29:06.058Z,68.62
2017-09-30T10:30:12.202Z,70.43
2017-09-30T10:31:19.704Z,69.38
2017-09-30T10:32:26.223Z,68.09
2017-09-30T10:33:32.416Z,69.56
2017-09-30T10:34:38.611Z,69.83
2017-09-30T10:35:44.414Z,69.21
2017-09-30T10:36:51.389Z,67.38
2017-09-30T10:37:57.628Z,69.41
2017-09-30T10:39:03.770Z,70.10
2017-09-30T10:40:10.940Z,70.04
2017-09-30T10:41:17.302Z,68.75
2017-09-30T10:42:24.632Z,68.33
2017-09-30T10:43:30.830Z,67.77
2017-09-30T10:44:37.303Z,68.37
2017-09-30T10:45:43.892Z,68.20
2017-09-30T10:46:50.797Z,68.30
2017-09-30T10:47:56.840Z,67.96
2017-09-30T10:49:03.765Z,67.44
2017-09-30T10:50:10.996Z,67.71
2017-09-30T10:51:17.101Z,68.65
2017-09-30T10:52:23.364Z,67.94
2017-09-30T10:53:29.576Z,67.86
2017-09-30T10:54:39.677Z,67.49
2017-09-30T10:55:46.835Z,68.21
2017-09-30T10:56:53.271Z,68.31
2017-09-30T10:57:59.908Z,70.92
2017-09-30T10:59:06.134Z,69.66
2017-09-30T11:00:13.225Z,71.24
2017-09-30T11:01:20.171Z,70.38
2017-09-30T11:02:26.498Z,67.67
2017-09-30T11:03:32.830Z,68.77
2017-09-30T11:04:40.200Z,69.49
2017-09-30T11:05:47.369Z,67.91
2017-09-30T11:06:53.548Z,67.12
2017-09-30T11:07:59.817Z,66.77
2017-09-30T11:09:06.031Z,69.06
2017-09-30T11:10:13.619Z,67.49
2017-09-30T11:11:21.570Z,66.16
2017-09-30T11:12:28.824Z,68.12
2017-09-30T11:13:39.519Z,68.25
2017-09-30T11:14:46.352Z,67.87
2017-09-30T11:15:53.086Z,66.37
2017-09-30T11:16:59.448Z,68.69
2017-09-30T11:18:05.900Z,67.79
2017-09-30T11:19:12.189Z,67.16
2017-09-30T11:20:18.365Z,66.90
2017-09-30T11:21:28.309Z,66.14
2017-09-30T11:22:34.605Z,67.69
2017-09-30T11:23:41.129Z,65.43
2017-09-30T11:24:47.287Z,66.59
2017-09-30T11:25:53.764Z,65.99
2017-09-30T11:27:00.579Z,66.11
2017-09-30T11:28:07.096Z,68.31
2017-09-30T11:29:14.409Z,69.49
2017-09-30T11:30:20.595Z,68.46
2017-09-30T11:31:26.819Z,67.82
2017-09-30T11:32:33.009Z,67.33
2017-09-30T11:33:39.220Z,67.36
2017-09-30T11:34:45.459Z,66.49
2017-09-30T11:35:51.698Z,66.79
2017-09-30T11:36:57.855Z,65.53
2017-09-30T11:38:04.060Z,65.11
2017-09-30T11:39:10.364Z,65.98
2017-09-30T11:40:16.731Z,65.79
2017-09-30T11:41:23.796Z,64.59
2017-09-30T11:42:29.905Z,65.84
2017-09-30T11:43:36.331Z,64.75
2017-09-30T11:44:42.640Z,65.07
2017-09-30T11:45:51.462Z,64.69
2017-09-30T11:46:57.777Z,64.64
2017-09-30T11:48:03.933Z,65.21
2017-09-30T11:49:11.527Z,65.11
2017-09-30T11:50:17.790Z,66.87
2017-09-30T11:51:24.110Z,65.56
2017-09-30T11:52:30.464Z,65.39
2017-09-30T11:53:36.884Z,65.66
2017-09-30T11:54:44.410Z,64.74
2017-09-30T11:55:50.560Z,66.14
2017-09-30T11:56:57.129Z,66.30
2017-09-30T11:58:03.296Z,65.28
2017-09-30T11:59:09.566Z,65.30
2017-09-30T12:00:16.139Z,66.11
2017-09-30T12:01:22.249Z,66.58
2017-09-30T12:02:28.464Z,68.39
2017-09-30T12:03:34.655Z,65.81
2017-09-30T12:04:42.108Z,67.03
2017-09-30T12:05:48.289Z,66.03
2017-09-30T12:06:55.095Z,65.35
2017-09-30T12:08:02.839Z,65.16
2017-09-30T12:09:08.974Z,65.05
2017-09-30T12:10:15.303Z,65.55
2017-09-30T12:11:21.551Z,66.16
2017-09-30T12:12:27.877Z,66.76
2017-09-30T12:13:34.111Z,65.67
2017-09-30T12:14:41.221Z,64.17
2017-09-30T12:15:48.088Z,64.52
2017-09-30T12:16:55.337Z,65.53
2017-09-30T12:18:01.685Z,65.83
2017-09-30T12:19:07.888Z,64.20
2017-09-30T12:20:14.049Z,64.45
2017-09-30T12:21:21.335Z,65.27
2017-09-30T12:22:28.260Z,65.38
2017-09-30T12:23:34.582Z,65.94
2017-09-30T12:24:40.771Z,65.18
2017-09-30T12:25:46.908Z,66.22
2017-09-30T12:26:53.137Z,66.35
2017-09-30T12:27:59.355Z,64.55
2017-09-30T12:29:05.718Z,64.26
2017-09-30T12:30:12.351Z,64.93
2017-09-30T12:31:18.653Z,64.34
2017-09-30T12:32:24.839Z,64.70
2017-09-30T12:33:31.279Z,64.01
2017-09-30T12:34:37.686Z,65.05
2017-09-30T12:35:44.102Z,64.18
2017-09-30T12:36:50.339Z,63.92
2017-09-30T12:37:56.460Z,63.25
2017-09-30T12:39:02.843Z,63.97
2017-09-30T12:40:10.986Z,63.73
2017-09-30T12:41:17.249Z,63.85
2017-09-30T12:42:23.454Z,63.15
2017-09-30T12:43:31.909Z,63.43
2017-09-30T12:44:38.894Z,64.00
2017-09-30T12:45:45.052Z,65.88
2017-09-30T12:46:51.418Z,63.74
2017-09-30T12:47:58.342Z,63.71
2017-09-30T12:49:04.551Z,64.03
2017-09-30T12:50:10.743Z,64.03
2017-09-30T12:51:16.924Z,64.78
2017-09-30T12:52:23.179Z,63.09
2017-09-30T12:53:29.697Z,63.16
2017-09-30T12:54:36.181Z,63.53
2017-09-30T12:55:42.472Z,64.40
2017-09-30T12:56:48.671Z,62.86
2017-09-30T12:57:54.931Z,63.50
2017-09-30T12:59:01.238Z,64.08
2017-09-30T13:00:08.117Z,64.52
2017-09-30T13:01:15.056Z,63.26
2017-09-30T13:02:21.305Z,65.14
2017-09-30T13:03:27.493Z,66.33
2017-09-30T13:04:33.816Z,65.20
2017-09-30T13:05:39.992Z,64.87
2017-09-30T13:06:47.251Z,64.58
2017-09-30T13:07:54.151Z,64.63
2017-09-30T13:09:00.417Z,63.77
2017-09-30T13:10:06.603Z,63.91
2017-09-30T13:11:13.578Z,61.82
2017-09-30T13:12:19.722Z,62.01
2017-09-30T13:13:27.390Z,61.79
2017-09-30T13:14:33.851Z,63.63
2017-09-30T13:15:40.084Z,62.30
2017-09-30T13:16:46.284Z,61.92
2017-09-30T13:17:52.454Z,62.18
2017-09-30T13:18:58.607Z,62.04
2017-09-30T13:20:04.511Z,64.46
2017-09-30T13:21:10.736Z,63.47
2017-09-30T13:22:17.186Z,62.57
2017-09-30T13:23:23.342Z,62.13
2017-09-30T13:24:29.811Z,62.34
2017-09-30T13:25:36.015Z,63.27
2017-09-30T13:26:42.172Z,63.24
2017-09-30T13:27:48.489Z,61.71
2017-09-30T13:28:54.883Z,60.72
2017-09-30T13:30:01.063Z,60.72
2017-09-30T13:31:07.220Z,62.52
2017-09-30T13:32:13.332Z,61.85
2017-09-30T13:33:19.938Z,60.87
2017-09-30T13:34:26.164Z,61.65
2017-09-30T13:35:32.485Z,60.41
2017-09-30T13:36:39.822Z,61.97
2017-09-30T13:37:46.733Z,60.93
2017-09-30T13:38:53.202Z,59.42
2017-09-30T13:39:59.588Z,60.31
2017-09-30T13:41:06.028Z,60.57
2017-09-30T13:42:12.244Z,61.21
2017-09-30T13:43:22.214Z,61.95
2017-09-30T13:44:28.397Z,59.50
2017-09-30T13:45:34.744Z,60.43
2017-09-30T13:46:41.038Z,58.74
2017-09-30T13:47:49.749Z,58.43
2017-09-30T13:48:55.895Z,60.66
2017-09-30T13:50:02.111Z,59.58
2017-09-30T13:51:11.258Z,59.09
2017-09-30T13:52:17.909Z,61.07
2017-09-30T13:53:24.124Z,60.34
2017-09-30T13:54:30.472Z,59.95
2017-09-30T13:55:37.075Z,60.44
2017-09-30T13:56:44.068Z,63.49
2017-09-30T13:57:50.268Z,61.49
2017-09-30T13:58:56.524Z,61.86
2017-09-30T14:00:02.703Z,59.94
2017-09-30T14:01:08.709Z,59.31
2017-09-30T14:02:14.768Z,60.94
2017-09-30T14:03:21.149Z,59.79
2017-09-30T14:04:27.341Z,61.23
2017-09-30T14:05:33.672Z,60.57
2017-09-30T14:06:39.856Z,60.07
2017-09-30T14:07:47.113Z,60.73
2017-09-30T14:08:53.289Z,61.47
2017-09-30T14:09:59.511Z,61.67
2017-09-30T14:11:05.939Z,61.77
2017-09-30T14:12:12.133Z,62.65
2017-09-30T14:13:19.003Z,62.66